Time;durP1;ratioP1;P1;durP2;ratioP2;P2;SDS_P1;SDS_P2;PMS_P1;PMS_P2;Temp;Humidity;BMP_temperature;BMP_pressure;BME280_temperature;BME280_humidity;BME280_pressure;Samples;Min_cycle;Max_cycle;Signal;HPM_P1;HPM_P2
2023/04/11 00:00:51;;;;;;;10.23;3.10;;;;;;;;;;5014178;28;20238;-68
2023/04/11 00:03:18;;;;;;;10.73;3.80;;;;;;;;;;4996542;28;20184;-66
2023/04/11 00:05:44;;;;;;;12.30;4.20;;;;;;;;;;5014432;28;20219;-68
2023/04/11 00:08:10;;;;;;;11.50;4.20;;;;;;;;;;5013942;28;20557;-68
2023/04/11 00:10:36;;;;;;;11.67;3.53;;;;;;;;;;4996239;28;20200;-68
2023/04/11 00:13:03;;;;;;;4.50;2.73;;;;;;;;;;4996222;28;20181;-70
2023/04/11 00:15:31;;;;;;;9.43;2.90;;;;;;;;;;5013980;28;20249;-68
2023/04/11 00:17:57;;;;;;;8.97;3.23;;;;;;;;;;5013748;28;20286;-68
2023/04/11 00:20:23;;;;;;;10.87;3.03;;;;;;;;;;5013787;28;20203;-68
2023/04/11 00:22:52;;;;;;;5.30;2.50;;;;;;;;;;5013734;28;20187;-66
2023/04/11 00:25:18;;;;;;;6.07;2.57;;;;;;;;;;5013938;28;20598;-68
2023/04/11 00:27:44;;;;;;;7.33;2.50;;;;;;;;;;5013644;28;20212;-68
2023/04/11 00:30:10;;;;;;;8.73;2.80;;;;;;;;;;5013798;28;20665;-68
2023/04/11 00:32:36;;;;;;;8.40;3.20;;;;;;;;;;5014229;28;20241;-69
2023/04/11 00:35:02;;;;;;;12.53;3.67;;;;;;;;;;5015090;28;20681;-68
2023/04/11 00:37:28;;;;;;;10.10;3.27;;;;;;;;;;5013680;28;20210;-67
2023/04/11 00:39:55;;;;;;;10.00;2.80;;;;;;;;;;5013966;28;20230;-68
2023/04/11 00:42:21;;;;;;;9.73;2.67;;;;;;;;;;5013416;28;20195;-69
2023/04/11 00:44:47;;;;;;;8.17;3.30;;;;;;;;;;5013799;28;20199;-66
2023/04/11 00:47:13;;;;;;;12.33;3.17;;;;;;;;;;5013521;28;20184;-68
2023/04/11 00:49:40;;;;;;;8.93;2.90;;;;;;;;;;5013906;28;20212;-67
2023/04/11 00:52:06;;;;;;;10.57;3.30;;;;;;;;;;4995678;28;20293;-69
2023/04/11 00:54:32;;;;;;;13.60;3.60;;;;;;;;;;5013511;28;20700;-68
2023/04/11 00:56:59;;;;;;;9.70;3.20;;;;;;;;;;5013271;28;20199;-68
2023/04/11 00:59:27;;;;;;;13.37;3.53;;;;;;;;;;5013921;28;20176;-68
2023/04/11 01:01:53;;;;;;;11.57;3.30;;;;;;;;;;5013050;28;20215;-68
2023/04/11 01:04:20;;;;;;;10.70;3.83;;;;;;;;;;4995771;28;20700;-67
2023/04/11 01:06:46;;;;;;;17.43;3.80;;;;;;;;;;5013201;28;20180;-68
2023/04/11 01:09:12;;;;;;;17.77;3.77;;;;;;;;;;5013214;28;20237;-68
2023/04/11 01:11:38;;;;;;;13.10;4.23;;;;;;;;;;4995562;28;20207;-68
2023/04/11 01:14:05;;;;;;;13.83;3.70;;;;;;;;;;5013504;28;20180;-68
2023/04/11 01:16:31;;;;;;;18.70;4.33;;;;;;;;;;4995501;28;20290;-67
2023/04/11 01:18:57;;;;;;;14.53;4.40;;;;;;;;;;5013589;28;20238;-68
2023/04/11 01:21:23;;;;;;;13.83;4.03;;;;;;;;;;5013054;28;20207;-66
2023/04/11 01:23:51;;;;;;;17.53;4.70;;;;;;;;;;5013069;28;20531;-68
2023/04/11 01:26:17;;;;;;;15.57;4.57;;;;;;;;;;4995375;28;20184;-68
2023/04/11 01:28:43;;;;;;;16.50;4.40;;;;;;;;;;5013008;28;20200;-68
2023/04/11 01:31:09;;;;;;;15.80;4.63;;;;;;;;;;5013056;28;20212;-68
2023/04/11 01:33:35;;;;;;;14.90;4.57;;;;;;;;;;5013343;28;20289;-68
2023/04/11 01:36:01;;;;;;;13.37;4.70;;;;;;;;;;5012883;28;20271;-68
2023/04/11 01:38:27;;;;;;;18.87;5.13;;;;;;;;;;5013021;28;20172;-68
2023/04/11 01:40:54;;;;;;;25.23;6.07;;;;;;;;;;4995479;28;20233;-68
2023/04/11 01:43:20;;;;;;;22.40;5.40;;;;;;;;;;4995441;28;20180;-68
2023/04/11 01:45:46;;;;;;;18.27;6.03;;;;;;;;;;5013387;28;20173;-68
2023/04/11 01:48:14;;;;;;;21.37;5.43;;;;;;;;;;4999162;28;20184;-67
2023/04/11 01:50:40;;;;;;;23.17;5.10;;;;;;;;;;4999444;28;20207;-68
2023/04/11 01:53:06;;;;;;;17.07;5.43;;;;;;;;;;5017749;28;20552;-67
2023/04/11 01:55:32;;;;;;;24.43;5.50;;;;;;;;;;4999285;28;20188;-67
2023/04/11 01:57:58;;;;;;;20.83;6.67;;;;;;;;;;5016388;28;20203;-68
2023/04/11 02:00:24;;;;;;;18.73;5.30;;;;;;;;;;5016014;28;20187;-68
2023/04/11 02:02:50;;;;;;;25.23;6.53;;;;;;;;;;5016148;28;20214;-68
2023/04/11 02:05:16;;;;;;;24.93;5.20;;;;;;;;;;5016036;28;20183;-68
2023/04/11 02:07:42;;;;;;;20.30;5.90;;;;;;;;;;5015961;28;20215;-68
2023/04/11 02:10:08;;;;;;;22.37;6.17;;;;;;;;;;5016111;28;20180;-69
2023/04/11 02:12:34;;;;;;;21.07;6.10;;;;;;;;;;5015886;28;20650;-68
2023/04/11 02:15:00;;;;;;;23.00;6.23;;;;;;;;;;5016043;28;20202;-68
2023/04/11 02:17:29;;;;;;;22.43;5.43;;;;;;;;;;5015673;28;20203;-68
2023/04/11 02:19:56;;;;;;;25.77;5.83;;;;;;;;;;4998105;28;20179;-68
2023/04/11 02:22:22;;;;;;;19.77;5.67;;;;;;;;;;5015589;28;20200;-68
2023/04/11 02:24:50;;;;;;;27.43;5.73;;;;;;;;;;4997943;28;20569;-67
2023/04/11 02:27:16;;;;;;;17.37;5.53;;;;;;;;;;5015587;28;20180;-68
2023/04/11 02:29:42;;;;;;;22.23;5.60;;;;;;;;;;5015723;28;20184;-68
2023/04/11 02:32:08;;;;;;;21.43;5.70;;;;;;;;;;5015519;28;20547;-66
2023/04/11 02:34:34;;;;;;;18.03;6.00;;;;;;;;;;5015538;28;20559;-67
2023/04/11 02:37:00;;;;;;;24.50;5.93;;;;;;;;;;5015411;28;20207;-68
2023/04/11 02:39:26;;;;;;;26.37;6.80;;;;;;;;;;4997803;28;20182;-68
2023/04/11 02:41:52;;;;;;;18.33;6.80;;;;;;;;;;5015557;28;20230;-68
2023/04/11 02:44:18;;;;;;;28.93;6.80;;;;;;;;;;5015442;28;20172;-68
2023/04/11 02:46:44;;;;;;;22.07;6.37;;;;;;;;;;5015782;28;20605;-67
2023/04/11 02:49:10;;;;;;;21.00;5.93;;;;;;;;;;5015679;28;20180;-68
2023/04/11 02:51:36;;;;;;;25.47;6.33;;;;;;;;;;4997649;28;20699;-67
2023/04/11 02:54:02;;;;;;;24.67;6.17;;;;;;;;;;5015464;28;20675;-69
2023/04/11 02:56:33;;;;;;;25.63;6.73;;;;;;;;;;5015292;28;20199;-67
2023/04/11 02:58:59;;;;;;;25.10;6.30;;;;;;;;;;4997727;28;20179;-66
2023/04/11 03:01:25;;;;;;;22.03;6.50;;;;;;;;;;5014959;28;20208;-68
2023/04/11 03:03:51;;;;;;;30.80;7.70;;;;;;;;;;5015394;28;20267;-67
2023/04/11 03:06:17;;;;;;;19.13;6.60;;;;;;;;;;4997385;28;20187;-67
2023/04/11 03:08:43;;;;;;;24.43;5.97;;;;;;;;;;4997557;28;20211;-70
2023/04/11 03:11:09;;;;;;;23.83;7.63;;;;;;;;;;4997225;28;20223;-68
2023/04/11 03:13:36;;;;;;;16.63;5.23;;;;;;;;;;4997338;28;20261;-68
2023/04/11 03:16:02;;;;;;;27.20;7.07;;;;;;;;;;4996991;28;20238;-68
2023/04/11 03:18:28;;;;;;;22.37;6.67;;;;;;;;;;5014662;28;20182;-68
2023/04/11 03:20:54;;;;;;;27.73;7.00;;;;;;;;;;5014667;28;20195;-68
2023/04/11 03:23:20;;;;;;;21.17;6.40;;;;;;;;;;5014492;28;20175;-67
2023/04/11 03:25:47;;;;;;;27.90;7.70;;;;;;;;;;5014713;28;20176;-68
2023/04/11 03:28:14;;;;;;;19.23;6.10;;;;;;;;;;5014450;28;20208;-68
2023/04/11 03:30:41;;;;;;;22.97;6.93;;;;;;;;;;5014742;28;20673;-68
2023/04/11 03:33:07;;;;;;;26.47;8.07;;;;;;;;;;4996824;28;20180;-69
2023/04/11 03:35:33;;;;;;;28.30;8.23;;;;;;;;;;5014354;28;20187;-68
2023/04/11 03:37:59;;;;;;;27.37;7.30;;;;;;;;;;4996540;28;20211;-68
2023/04/11 03:40:25;;;;;;;21.63;6.17;;;;;;;;;;5014296;28;20179;-67
2023/04/11 03:42:51;;;;;;;18.83;6.97;;;;;;;;;;4996591;28;20551;-68
2023/04/11 03:45:17;;;;;;;22.53;7.90;;;;;;;;;;5014352;28;20172;-67
2023/04/11 03:47:43;;;;;;;26.70;8.03;;;;;;;;;;5014089;28;20287;-68
2023/04/11 03:50:09;;;;;;;26.00;7.10;;;;;;;;;;4996347;28;20215;-66
2023/04/11 03:52:35;;;;;;;23.60;7.60;;;;;;;;;;5014004;28;20184;-67
2023/04/11 03:55:02;;;;;;;21.43;7.57;;;;;;;;;;4996400;28;20180;-68
2023/04/11 03:57:28;;;;;;;23.17;7.60;;;;;;;;;;5013867;28;20206;-68
2023/04/11 03:59:57;;;;;;;24.33;7.67;;;;;;;;;;5014132;28;20172;-67
2023/04/11 04:02:23;;;;;;;19.80;7.17;;;;;;;;;;4996652;28;20214;-69
2023/04/11 04:04:53;;;;;;;20.60;6.87;;;;;;;;;;4996753;28;20188;-69
2023/04/11 04:07:23;;;;;;;22.00;7.23;;;;;;;;;;4996615;28;20242;-68
2023/04/11 04:09:49;;;;;;;25.97;8.37;;;;;;;;;;5045866;23;20697;-68
2023/04/11 04:12:18;;;;;;;28.63;7.20;;;;;;;;;;5033607;28;20178;-68
2023/04/11 04:14:44;;;;;;;21.90;7.10;;;;;;;;;;5033387;28;20175;-68
2023/04/11 04:17:11;;;;;;;27.30;7.50;;;;;;;;;;5033731;28;20697;-68
2023/04/11 04:19:37;;;;;;;18.70;6.50;;;;;;;;;;5015560;28;20195;-67
2023/04/11 04:22:04;;;;;;;21.67;6.50;;;;;;;;;;5033403;28;20678;-68
2023/04/11 04:24:30;;;;;;;21.47;6.87;;;;;;;;;;5015771;28;20270;-68
2023/04/11 04:26:59;;;;;;;22.93;6.33;;;;;;;;;;5033375;28;20178;-68
2023/04/11 04:29:32;;;;;;;23.47;6.40;;;;;;;;;;5033212;28;20187;-68
2023/04/11 04:32:00;;;;;;;26.13;6.47;;;;;;;;;;5033298;28;20535;-68
2023/04/11 04:34:27;;;;;;;25.10;6.40;;;;;;;;;;5033410;28;20171;-68
2023/04/11 04:36:58;;;;;;;19.63;6.20;;;;;;;;;;5015398;28;20223;-68
2023/04/11 04:39:24;;;;;;;23.13;6.47;;;;;;;;;;5033352;28;20218;-68
2023/04/11 04:41:57;;;;;;;23.77;6.07;;;;;;;;;;5033307;28;20186;-67
2023/04/11 04:44:23;;;;;;;20.73;6.17;;;;;;;;;;5033355;28;20182;-67
2023/04/11 04:46:57;;;;;;;22.47;6.47;;;;;;;;;;5015306;28;20206;-68
2023/04/11 04:49:23;;;;;;;23.40;6.73;;;;;;;;;;5015964;28;20673;-68
2023/04/11 04:51:49;;;;;;;24.23;6.57;;;;;;;;;;5033809;28;20179;-68
2023/04/11 04:54:18;;;;;;;29.80;7.27;;;;;;;;;;5032986;28;20174;-70
2023/04/11 04:56:44;;;;;;;25.37;6.87;;;;;;;;;;5033251;28;20207;-68
2023/04/11 04:59:13;;;;;;;25.63;6.07;;;;;;;;;;5032953;28;20214;-68
2023/04/11 05:01:39;;;;;;;25.43;5.90;;;;;;;;;;5015398;28;20175;-67
2023/04/11 05:04:05;;;;;;;29.63;6.43;;;;;;;;;;5032951;28;20691;-68
2023/04/11 05:06:31;;;;;;;22.93;6.23;;;;;;;;;;5032850;28;20175;-68
2023/04/11 05:08:58;;;;;;;28.33;6.60;;;;;;;;;;5033161;28;20207;-68
2023/04/11 05:11:25;;;;;;;20.00;5.73;;;;;;;;;;5015177;28;20175;-69
2023/04/11 05:13:51;;;;;;;30.97;6.20;;;;;;;;;;5015975;28;20215;-67
2023/04/11 05:16:17;;;;;;;23.43;5.90;;;;;;;;;;5032737;28;20210;-67
2023/04/11 05:18:43;;;;;;;18.70;5.93;;;;;;;;;;5032835;28;20228;-67
2023/04/11 05:21:09;;;;;;;15.37;5.63;;;;;;;;;;5015888;28;20180;-67
2023/04/11 05:23:36;;;;;;;20.10;5.17;;;;;;;;;;5036918;28;20542;-67
2023/04/11 05:26:02;;;;;;;18.57;5.37;;;;;;;;;;5018782;28;20186;-68
2023/04/11 05:28:28;;;;;;;21.80;6.37;;;;;;;;;;5036564;28;20183;-68
2023/04/11 05:30:54;;;;;;;19.90;5.90;;;;;;;;;;5036509;28;20203;-68
2023/04/11 05:33:20;;;;;;;21.23;6.17;;;;;;;;;;5036353;28;20186;-67
2023/04/11 05:35:46;;;;;;;16.50;5.10;;;;;;;;;;5036409;28;20175;-67
2023/04/11 05:38:12;;;;;;;19.77;5.33;;;;;;;;;;5018546;28;20561;-68
2023/04/11 05:40:38;;;;;;;15.23;6.10;;;;;;;;;;5037136;28;20681;-68
2023/04/11 05:43:04;;;;;;;17.93;5.60;;;;;;;;;;5036872;28;20171;-70
2023/04/11 05:45:30;;;;;;;22.77;7.27;;;;;;;;;;5018468;28;20180;-68
2023/04/11 05:47:56;;;;;;;18.20;5.13;;;;;;;;;;5036246;28;20189;-69
2023/04/11 05:50:22;;;;;;;22.53;5.90;;;;;;;;;;5036083;28;20203;-68
2023/04/11 05:52:48;;;;;;;25.00;6.80;;;;;;;;;;5036064;28;20670;-68
2023/04/11 05:55:14;;;;;;;18.00;5.97;;;;;;;;;;5035981;28;20186;-68
2023/04/11 05:57:40;;;;;;;20.37;6.00;;;;;;;;;;5035905;28;20334;-69
2023/04/11 06:00:11;;;;;;;16.37;6.13;;;;;;;;;;5018027;28;20294;-68
2023/04/11 06:02:38;;;;;;;24.43;6.40;;;;;;;;;;5018161;28;20638;-68
2023/04/11 06:05:04;;;;;;;26.57;6.70;;;;;;;;;;5018532;28;20553;-68
2023/04/11 06:07:31;;;;;;;14.00;4.83;;;;;;;;;;5018208;28;20191;-68
2023/04/11 06:09:57;;;;;;;15.00;5.53;;;;;;;;;;5035496;28;20302;-69
2023/04/11 06:12:23;;;;;;;17.90;5.47;;;;;;;;;;5017978;28;20218;-68
2023/04/11 06:14:49;;;;;;;19.77;5.90;;;;;;;;;;5035543;28;20175;-68
2023/04/11 06:17:15;;;;;;;15.77;5.37;;;;;;;;;;5017782;28;20771;-68
2023/04/11 06:19:41;;;;;;;17.53;5.40;;;;;;;;;;5035381;28;20203;-68
2023/04/11 06:22:07;;;;;;;16.90;5.60;;;;;;;;;;5035541;28;20172;-68
2023/04/11 06:24:37;;;;;;;20.70;4.27;;;;;;;;;;5017710;28;20277;-68
2023/04/11 06:27:03;;;;;;;16.83;5.10;;;;;;;;;;5035356;28;20217;-68
2023/04/11 06:29:29;;;;;;;17.40;5.63;;;;;;;;;;5035285;28;20199;-68
2023/04/11 06:31:55;;;;;;;18.97;4.50;;;;;;;;;;5035581;28;20663;-68
2023/04/11 06:34:21;;;;;;;17.93;5.37;;;;;;;;;;5035365;28;20175;-68
2023/04/11 06:36:48;;;;;;;20.40;4.80;;;;;;;;;;5017357;28;20580;-68
2023/04/11 06:39:18;;;;;;;18.77;5.50;;;;;;;;;;5035523;28;20350;-68
2023/04/11 06:41:44;;;;;;;14.43;4.60;;;;;;;;;;5018186;28;20176;-68
2023/04/11 06:44:10;;;;;;;25.03;5.23;;;;;;;;;;5017702;28;20190;-68
2023/04/11 06:46:36;;;;;;;19.80;4.93;;;;;;;;;;5035428;28;20190;-68
2023/04/11 06:49:02;;;;;;;14.87;5.40;;;;;;;;;;5034913;28;20199;-68
2023/04/11 06:51:28;;;;;;;19.83;5.63;;;;;;;;;;5035113;28;20245;-69
2023/04/11 06:53:54;;;;;;;14.87;4.80;;;;;;;;;;5035084;28;20183;-68
2023/04/11 06:56:20;;;;;;;15.77;4.63;;;;;;;;;;5034659;28;20237;-68
2023/04/11 06:58:46;;;;;;;17.87;4.83;;;;;;;;;;5034726;28;20665;-68
2023/04/11 07:01:13;;;;;;;18.60;5.00;;;;;;;;;;5016924;28;20262;-68
2023/04/11 07:03:39;;;;;;;26.40;6.17;;;;;;;;;;5034654;28;20171;-68
2023/04/11 07:06:06;;;;;;;19.57;5.53;;;;;;;;;;5016842;28;20183;-69
2023/04/11 07:08:32;;;;;;;20.37;5.17;;;;;;;;;;5034573;28;20187;-68
2023/04/11 07:10:58;;;;;;;19.10;5.83;;;;;;;;;;5034362;28;20215;-68
2023/04/11 07:13:24;;;;;;;24.40;12.10;;;;;;;;;;5034573;28;20198;-68
2023/04/11 07:15:50;;;;;;;21.50;6.97;;;;;;;;;;5016696;28;20225;-68
2023/04/11 07:18:16;;;;;;;20.80;9.30;;;;;;;;;;5016685;28;20647;-68
2023/04/11 07:20:42;;;;;;;15.90;5.20;;;;;;;;;;5016697;28;20249;-68
2023/04/11 07:23:08;;;;;;;18.50;5.67;;;;;;;;;;5034830;28;20175;-68
2023/04/11 07:25:34;;;;;;;25.77;10.97;;;;;;;;;;5034517;28;20187;-68
2023/04/11 07:28:00;;;;;;;18.20;6.03;;;;;;;;;;5034485;28;20182;-68
2023/04/11 07:30:29;;;;;;;19.87;9.20;;;;;;;;;;5016484;28;20213;-68
2023/04/11 07:32:55;;;;;;;21.90;7.17;;;;;;;;;;5034155;28;20179;-67
2023/04/11 07:35:21;;;;;;;21.00;8.83;;;;;;;;;;5034544;28;20175;-67
2023/04/11 07:37:48;;;;;;;30.43;12.77;;;;;;;;;;5016722;28;20258;-67
2023/04/11 07:40:14;;;;;;;15.50;5.03;;;;;;;;;;5016275;28;20234;-68
2023/04/11 07:42:40;;;;;;;17.13;5.07;;;;;;;;;;5034072;28;20255;-68
2023/04/11 07:45:07;;;;;;;14.73;4.63;;;;;;;;;;5015368;28;20179;-68
2023/04/11 07:47:33;;;;;;;18.73;4.37;;;;;;;;;;5033787;28;20175;-68
2023/04/11 07:49:59;;;;;;;10.70;3.77;;;;;;;;;;5033785;28;20203;-68
2023/04/11 07:52:25;;;;;;;14.80;4.07;;;;;;;;;;5016150;28;20183;-68
2023/04/11 07:54:51;;;;;;;10.87;3.93;;;;;;;;;;5016106;28;20187;-68
2023/04/11 07:57:17;;;;;;;19.00;4.80;;;;;;;;;;5033872;28;20543;-68
2023/04/11 07:59:43;;;;;;;12.53;3.53;;;;;;;;;;5015938;28;20199;-68
2023/04/11 08:02:09;;;;;;;11.10;4.27;;;;;;;;;;5016076;28;20558;-68
2023/04/11 08:04:36;;;;;;;12.50;4.30;;;;;;;;;;5033811;28;20171;-68
2023/04/11 08:07:02;;;;;;;13.00;4.93;;;;;;;;;;5033499;28;20194;-69
2023/04/11 08:09:29;;;;;;;12.60;3.77;;;;;;;;;;5033598;28;20282;-68
2023/04/11 08:11:58;;;;;;;12.37;3.73;;;;;;;;;;5015817;28;20186;-68
2023/04/11 08:14:24;;;;;;;14.80;4.30;;;;;;;;;;5017240;28;20182;-68
2023/04/11 08:16:50;;;;;;;17.23;4.37;;;;;;;;;;5016167;28;20221;-69
2023/04/11 08:19:17;;;;;;;11.33;3.80;;;;;;;;;;5015492;28;20692;-68
2023/04/11 08:21:43;;;;;;;15.37;4.27;;;;;;;;;;5015721;28;20225;-68
2023/04/11 08:24:09;;;;;;;12.03;4.13;;;;;;;;;;5015748;28;20245;-68
2023/04/11 08:26:35;;;;;;;11.80;3.77;;;;;;;;;;5033667;28;20642;-68
2023/04/11 08:29:02;;;;;;;18.03;4.10;;;;;;;;;;5033131;28;20199;-68
2023/04/11 08:31:28;;;;;;;14.83;4.17;;;;;;;;;;5015576;28;20232;-67
2023/04/11 08:33:54;;;;;;;12.50;3.73;;;;;;;;;;5015439;28;20213;-67
2023/04/11 08:36:20;;;;;;;13.87;3.97;;;;;;;;;;5015417;28;20187;-68
2023/04/11 08:38:46;;;;;;;13.10;4.00;;;;;;;;;;5015458;28;20270;-68
2023/04/11 08:41:13;;;;;;;13.73;4.07;;;;;;;;;;5033205;28;20281;-68
2023/04/11 08:43:39;;;;;;;11.50;3.63;;;;;;;;;;5032981;28;20171;-68
2023/04/11 08:46:08;;;;;;;11.97;3.83;;;;;;;;;;5033380;28;20179;-68
2023/04/11 08:48:34;;;;;;;7.20;3.10;;;;;;;;;;5033001;28;20175;-68
2023/04/11 08:51:01;;;;;;;8.20;3.17;;;;;;;;;;5032891;28;20191;-69
2023/04/11 08:53:27;;;;;;;13.30;3.93;;;;;;;;;;5032853;28;20218;-68
2023/04/11 08:55:53;;;;;;;14.80;5.20;;;;;;;;;;5017445;28;20181;-68
2023/04/11 08:58:19;;;;;;;12.40;3.73;;;;;;;;;;5036855;28;20285;-67
2023/04/11 09:00:45;;;;;;;12.10;3.87;;;;;;;;;;5036869;28;20686;-68
2023/04/11 09:03:12;;;;;;;8.83;3.60;;;;;;;;;;5019327;28;20185;-67
2023/04/11 09:05:40;;;;;;;10.50;3.60;;;;;;;;;;5037400;28;20259;-68
2023/04/11 09:08:07;;;;;;;8.90;3.30;;;;;;;;;;5020012;28;20187;-68
2023/04/11 09:10:33;;;;;;;9.60;3.40;;;;;;;;;;5036935;28;20224;-68
2023/04/11 09:12:59;;;;;;;7.93;2.53;;;;;;;;;;5019135;28;20183;-68
2023/04/11 09:15:30;;;;;;;8.83;3.47;;;;;;;;;;5036798;28;20225;-68
2023/04/11 09:17:56;;;;;;;10.60;3.00;;;;;;;;;;5018778;28;20199;-68
2023/04/11 09:20:29;;;;;;;7.17;2.97;;;;;;;;;;5019030;28;20256;-68
2023/04/11 09:22:55;;;;;;;8.17;3.57;;;;;;;;;;5018888;28;20689;-68
2023/04/11 09:25:22;;;;;;;7.40;2.80;;;;;;;;;;5037200;28;20202;-68
2023/04/11 09:27:48;;;;;;;12.17;4.00;;;;;;;;;;5018516;28;20187;-68
2023/04/11 09:30:22;;;;;;;14.20;3.90;;;;;;;;;;5036312;28;20201;-68
2023/04/11 09:32:48;;;;;;;14.10;4.47;;;;;;;;;;5018572;28;20707;-68
2023/04/11 09:35:19;;;;;;;9.53;4.00;;;;;;;;;;5036607;28;20229;-68
2023/04/11 09:37:49;;;;;;;5.33;2.80;;;;;;;;;;5018340;28;20214;-68
2023/04/11 09:40:17;;;;;;;8.60;3.57;;;;;;;;;;5036099;28;20191;-68
2023/04/11 09:42:43;;;;;;;9.37;3.43;;;;;;;;;;5036140;28;20175;-68
2023/04/11 09:45:20;;;;;;;6.70;3.10;;;;;;;;;;5018375;28;20177;-68
2023/04/11 09:47:47;;;;;;;8.50;2.93;;;;;;;;;;5036147;28;20194;-67
2023/04/11 09:50:13;;;;;;;10.97;4.07;;;;;;;;;;5018353;28;20731;-68
2023/04/11 09:52:42;;;;;;;9.03;4.07;;;;;;;;;;5036025;28;20179;-68
2023/04/11 09:55:12;;;;;;;7.10;3.33;;;;;;;;;;5036412;28;20233;-68
2023/04/11 09:57:44;;;;;;;6.80;3.30;;;;;;;;;;5036097;28;20780;-67
2023/04/11 10:00:15;;;;;;;8.97;3.60;;;;;;;;;;5039420;28;20202;-68
2023/04/11 10:02:40;;;;;;;9.50;3.33;;;;;;;;;;5018178;28;20636;-68
2023/04/11 10:05:07;;;;;;;8.50;3.43;;;;;;;;;;5035981;28;20210;-68
2023/04/11 10:07:34;;;;;;;7.13;2.77;;;;;;;;;;5034659;28;20175;-68
2023/04/11 10:10:00;;;;;;;7.73;3.17;;;;;;;;;;5035505;28;20257;-68
2023/04/11 10:12:30;;;;;;;9.30;3.50;;;;;;;;;;5035652;28;20222;-68
2023/04/11 10:14:56;;;;;;;8.47;3.20;;;;;;;;;;5035693;28;20186;-67
2023/04/11 10:17:24;;;;;;;6.33;2.90;;;;;;;;;;5035697;28;20643;-69
2023/04/11 10:19:55;;;;;;;8.93;3.40;;;;;;;;;;5032455;23;20366;-67
2023/04/11 10:22:39;;;;;;;9.47;3.37;;;;;;;;;;5015780;28;20537;-67
2023/04/11 10:25:18;;;;;;;8.37;3.17;;;;;;;;;;4998137;28;20214;-67
2023/04/11 10:27:48;;;;;;;10.50;3.90;;;;;;;;;;4998057;28;20274;-66
2023/04/11 10:30:14;;;;;;;9.87;4.20;;;;;;;;;;5015619;28;20284;-67
2023/04/11 10:32:40;;;;;;;12.37;4.23;;;;;;;;;;5015530;28;20237;-66
2023/04/11 10:35:15;;;;;;;9.70;3.87;;;;;;;;;;4998083;28;20180;-69
2023/04/11 10:37:41;;;;;;;12.03;3.03;;;;;;;;;;4998096;28;20200;-65
2023/04/11 10:40:11;;;;;;;10.17;3.10;;;;;;;;;;5015599;28;20263;-65
2023/04/11 10:42:43;;;;;;;10.33;3.13;;;;;;;;;;4997863;28;20646;-65
2023/04/11 10:45:20;;;;;;;8.47;2.87;;;;;;;;;;5015685;28;20179;-66
2023/04/11 10:47:55;;;;;;;5.43;2.93;;;;;;;;;;5015438;28;20203;-66
2023/04/11 10:50:24;;;;;;;11.33;5.07;;;;;;;;;;4997602;28;20202;-65
2023/04/11 10:52:51;;;;;;;8.53;3.70;;;;;;;;;;4997756;28;20191;-67
2023/04/11 10:55:17;;;;;;;8.00;2.70;;;;;;;;;;4997599;28;20186;-67
2023/04/11 10:58:01;;;;;;;7.37;2.93;;;;;;;;;;4997373;28;20211;-67
2023/04/11 11:00:28;;;;;;;7.10;2.60;;;;;;;;;;4997735;28;20235;-67
2023/04/11 11:02:54;;;;;;;7.83;3.00;;;;;;;;;;5015180;28;20607;-67
2023/04/11 11:05:22;;;;;;;10.13;3.40;;;;;;;;;;4997327;28;20190;-65
2023/04/11 11:07:48;;;;;;;8.50;3.17;;;;;;;;;;5015149;28;20185;-67
2023/04/11 11:10:14;;;;;;;7.73;2.77;;;;;;;;;;4997252;28;20204;-69
2023/04/11 11:12:53;;;;;;;6.27;3.40;;;;;;;;;;4997205;28;20188;-67
2023/04/11 11:15:19;;;;;;;16.23;4.57;;;;;;;;;;4997058;28;20187;-68
2023/04/11 11:17:45;;;;;;;11.53;4.43;;;;;;;;;;4997006;28;20266;-67
2023/04/11 11:20:18;;;;;;;6.60;3.57;;;;;;;;;;5014459;28;20212;-67
2023/04/11 11:22:57;;;;;;;8.23;3.53;;;;;;;;;;5014573;28;20259;-65
2023/04/11 11:25:24;;;;;;;10.77;3.07;;;;;;;;;;4997118;28;20221;-66
2023/04/11 11:27:57;;;;;;;6.00;2.97;;;;;;;;;;5014660;28;20217;-66
2023/04/11 11:30:23;;;;;;;7.97;3.27;;;;;;;;;;4997290;28;20208;-67
2023/04/11 11:32:49;;;;;;;7.13;3.20;;;;;;;;;;5014740;28;20685;-63
2023/04/11 11:35:15;;;;;;;6.57;3.23;;;;;;;;;;5016017;28;20188;-68
2023/04/11 11:37:41;;;;;;;8.17;2.80;;;;;;;;;;5014289;28;20199;-64
2023/04/11 11:40:11;;;;;;;5.43;2.60;;;;;;;;;;4996727;28;20222;-69
2023/04/11 11:42:37;;;;;;;8.63;3.00;;;;;;;;;;5014487;28;20251;-69
2023/04/11 11:45:20;;;;;;;6.90;2.83;;;;;;;;;;5014823;28;20210;-66
2023/04/11 11:47:46;;;;;;;7.30;3.87;;;;;;;;;;5014318;28;20601;-66
2023/04/11 11:50:24;;;;;;;6.63;2.50;;;;;;;;;;5014412;28;20338;-64
2023/04/11 11:52:51;;;;;;;6.23;2.70;;;;;;;;;;5013958;28;20593;-65
2023/04/11 11:55:17;;;;;;;6.07;2.53;;;;;;;;;;4996372;28;20183;-66
2023/04/11 11:57:44;;;;;;;8.47;2.90;;;;;;;;;;5014236;28;20692;-68
2023/04/11 12:00:10;;;;;;;3.47;2.00;;;;;;;;;;4996298;28;20291;-67
2023/04/11 12:02:37;;;;;;;6.30;2.27;;;;;;;;;;5013821;28;20176;-66
2023/04/11 12:05:07;;;;;;;8.23;2.00;;;;;;;;;;4996157;28;20188;-66
2023/04/11 12:07:34;;;;;;;7.50;3.43;;;;;;;;;;5013817;28;20229;-66
2023/04/11 12:10:01;;;;;;;7.83;4.20;;;;;;;;;;4996350;28;20208;-66
2023/04/11 12:12:36;;;;;;;5.03;2.30;;;;;;;;;;5014212;28;20203;-65
2023/04/11 12:15:02;;;;;;;4.70;2.60;;;;;;;;;;5014263;28;20548;-66
2023/04/11 12:17:34;;;;;;;12.00;8.80;;;;;;;;;;5013943;28;20295;-66
2023/04/11 12:20:01;;;;;;;7.37;3.67;;;;;;;;;;5013743;28;20207;-66
2023/04/11 12:22:27;;;;;;;6.83;2.30;;;;;;;;;;5014137;28;20646;-66
2023/04/11 12:24:53;;;;;;;5.70;2.67;;;;;;;;;;4995997;28;20271;-67
2023/04/11 12:27:19;;;;;;;8.03;2.17;;;;;;;;;;4996366;28;20215;-68
2023/04/11 12:29:45;;;;;;;5.60;2.10;;;;;;;;;;5013526;28;20199;-67
2023/04/11 12:32:11;;;;;;;4.20;2.10;;;;;;;;;;5013364;28;20187;-67
2023/04/11 12:34:37;;;;;;;8.83;2.63;;;;;;;;;;5013618;28;20246;-65
2023/04/11 12:37:03;;;;;;;6.23;2.37;;;;;;;;;;5013139;28;20290;-66
2023/04/11 12:39:30;;;;;;;7.57;2.43;;;;;;;;;;5013125;28;20223;-67
2023/04/11 12:41:56;;;;;;;6.13;2.30;;;;;;;;;;5013620;28;20668;-67
2023/04/11 12:44:22;;;;;;;7.23;2.70;;;;;;;;;;4995626;28;20180;-66
2023/04/11 12:46:48;;;;;;;3.80;1.60;;;;;;;;;;5013343;28;20184;-64
2023/04/11 12:49:14;;;;;;;5.00;2.00;;;;;;;;;;5013245;28;20286;-65
2023/04/11 12:51:40;;;;;;;4.67;2.07;;;;;;;;;;4995449;28;20184;-65
2023/04/11 12:54:06;;;;;;;5.10;2.10;;;;;;;;;;4995624;28;20183;-65
2023/04/11 12:56:32;;;;;;;5.37;1.87;;;;;;;;;;4995545;28;20187;-65
2023/04/11 12:58:58;;;;;;;3.13;1.63;;;;;;;;;;4995577;28;20172;-65
2023/04/11 13:01:25;;;;;;;3.07;1.40;;;;;;;;;;5013108;28;20186;-66
2023/04/11 13:03:51;;;;;;;5.80;1.60;;;;;;;;;;5013263;28;20176;-65
2023/04/11 13:06:17;;;;;;;6.10;1.90;;;;;;;;;;4995492;28;20184;-65
2023/04/11 13:08:43;;;;;;;3.60;1.57;;;;;;;;;;4995377;28;20688;-65
2023/04/11 13:11:09;;;;;;;2.57;1.50;;;;;;;;;;5013346;28;20654;-65
2023/04/11 13:13:35;;;;;;;3.63;1.60;;;;;;;;;;5013276;28;20258;-66
2023/04/11 13:16:01;;;;;;;5.23;1.80;;;;;;;;;;5013586;28;20262;-66
2023/04/11 13:18:27;;;;;;;6.43;2.30;;;;;;;;;;5013487;28;20195;-66
2023/04/11 13:20:53;;;;;;;4.47;2.13;;;;;;;;;;5012965;28;20215;-68
2023/04/11 13:23:19;;;;;;;4.30;2.37;;;;;;;;;;4995486;28;20556;-67
2023/04/11 13:25:45;;;;;;;5.10;1.93;;;;;;;;;;4995535;28;20176;-66
2023/04/11 13:28:11;;;;;;;6.47;1.80;;;;;;;;;;4995644;28;20183;-66
2023/04/11 13:30:37;;;;;;;3.47;1.80;;;;;;;;;;5013238;28;20203;-66
2023/04/11 13:33:03;;;;;;;7.30;2.00;;;;;;;;;;5013358;28;20654;-67
2023/04/11 13:35:29;;;;;;;4.50;2.03;;;;;;;;;;5013496;28;20183;-65
2023/04/11 13:37:55;;;;;;;4.50;2.13;;;;;;;;;;4995518;28;20199;-66
2023/04/11 13:40:21;;;;;;;5.47;2.27;;;;;;;;;;5013205;28;20207;-66
2023/04/11 13:42:47;;;;;;;6.73;2.27;;;;;;;;;;5015414;28;20210;-66
2023/04/11 13:45:13;;;;;;;5.37;2.20;;;;;;;;;;5000413;28;20184;-66
2023/04/11 13:47:39;;;;;;;5.60;1.93;;;;;;;;;;5017652;28;20215;-66
2023/04/11 13:50:06;;;;;;;7.50;2.03;;;;;;;;;;5001270;28;20212;-66
2023/04/11 13:52:31;;;;;;;5.67;2.37;;;;;;;;;;4999702;28;20191;-66
2023/04/11 13:54:57;;;;;;;4.07;1.77;;;;;;;;;;5018919;28;20183;-66
2023/04/11 13:57:23;;;;;;;6.27;1.80;;;;;;;;;;4999810;28;20214;-66
2023/04/11 13:59:49;;;;;;;3.53;1.70;;;;;;;;;;5016754;28;20261;-66
2023/04/11 14:02:15;;;;;;;9.00;2.27;;;;;;;;;;5016633;28;20182;-66
2023/04/11 14:04:41;;;;;;;3.53;1.70;;;;;;;;;;5016348;28;20179;-66
2023/04/11 14:07:07;;;;;;;6.20;2.20;;;;;;;;;;5016395;28;20234;-66
2023/04/11 14:09:33;;;;;;;6.00;2.07;;;;;;;;;;5015920;28;20538;-66
2023/04/11 14:12:00;;;;;;;7.07;2.27;;;;;;;;;;4998433;28;20184;-67
2023/04/11 14:14:26;;;;;;;3.53;1.70;;;;;;;;;;5015936;28;20267;-66
2023/04/11 14:16:52;;;;;;;4.67;1.73;;;;;;;;;;5015882;28;20236;-65
2023/04/11 14:19:21;;;;;;;6.30;1.83;;;;;;;;;;5015631;28;20211;-66
2023/04/11 14:21:47;;;;;;;4.50;1.90;;;;;;;;;;5016135;28;20176;-66
2023/04/11 14:24:13;;;;;;;3.83;2.00;;;;;;;;;;5015766;28;20533;-66
2023/04/11 14:26:38;;;;;;;3.87;2.00;;;;;;;;;;5015841;28;20563;-66
2023/04/11 14:29:05;;;;;;;8.40;2.43;;;;;;;;;;5015734;28;20260;-66
2023/04/11 14:31:31;;;;;;;7.17;2.27;;;;;;;;;;5015612;28;20171;-66
2023/04/11 14:33:57;;;;;;;4.93;2.47;;;;;;;;;;4998046;28;20180;-66